createdAt,value
2022-09-27T00:01:19.181Z,74.11
2022-09-27T00:03:46.164Z,74.62
2022-09-27T00:06:31.015Z,75.71
2022-09-27T00:08:59.812Z,75.99
2022-09-27T00:11:36.320Z,76.31
2022-09-27T00:14:05.162Z,77.05
2022-09-27T00:16:36.846Z,76.86
2022-09-27T00:19:15.862Z,77.33
2022-09-27T00:21:44.330Z,77.69
2022-09-27T00:24:20.737Z,77.70
2022-09-27T00:26:49.288Z,78.68
2022-09-27T00:29:19.022Z,78.04
2022-09-27T00:31:46.755Z,78.82
2022-09-27T00:34:23.915Z,79.21
2022-09-27T00:36:51.854Z,79.20
2022-09-27T00:39:19.042Z,79.32
2022-09-27T00:41:46.353Z,79.88
2022-09-27T00:44:25.855Z,79.05
2022-09-27T00:47:07.648Z,79.69
2022-09-27T00:49:47.632Z,80.44
2022-09-27T00:52:25.241Z,79.76
2022-09-27T00:55:01.416Z,80.63
2022-09-27T00:57:28.870Z,79.98
2022-09-27T01:00:05.829Z,80.13
2022-09-27T01:02:33.830Z,80.18
2022-09-27T01:05:01.642Z,79.83
2022-09-27T01:07:28.753Z,79.86
2022-09-27T01:09:55.716Z,80.63
2022-09-27T01:12:57.944Z,80.23
2022-09-27T01:15:40.412Z,80.08
2022-09-27T01:19:01.165Z,79.99
2022-09-27T01:21:52.116Z,80.90
2022-09-27T01:24:58.284Z,81.45
2022-09-27T01:27:58.690Z,81.14
2022-09-27T01:30:31.430Z,81.97
2022-09-27T01:33:21.588Z,82.10
2022-09-27T01:36:03.296Z,81.90
2022-09-27T01:38:56.285Z,82.64
2022-09-27T01:41:58.921Z,82.97
2022-09-27T01:45:06.658Z,82.48
2022-09-27T01:47:49.673Z,82.81
2022-09-27T01:50:57.142Z,82.49
2022-09-27T01:53:39.361Z,80.83
2022-09-27T01:56:37.144Z,80.98
2022-09-27T01:59:40.068Z,80.99
2022-09-27T02:02:58.295Z,81.19
2022-09-27T02:06:01.163Z,81.75
2022-09-27T02:09:05.742Z,82.04
2022-09-27T02:12:06.836Z,81.89
2022-09-27T02:14:47.035Z,82.05
2022-09-27T02:17:47.792Z,82.56
2022-09-27T02:20:40.161Z,82.17
2022-09-27T02:23:41.683Z,81.79
2022-09-27T02:26:27.734Z,81.32
2022-09-27T02:29:11.274Z,81.67
2022-09-27T02:31:46.551Z,80.98
2022-09-27T02:34:26.254Z,82.06
2022-09-27T02:36:54.015Z,81.82
2022-09-27T02:39:22.472Z,81.91
2022-09-27T02:42:00.200Z,82.44
2022-09-27T02:44:28.884Z,81.19
2022-09-27T02:47:15.446Z,81.52
2022-09-27T02:50:01.218Z,80.79
2022-09-27T02:53:35.202Z,79.94
2022-09-27T02:56:30.886Z,80.47
2022-09-27T03:00:07.463Z,80.26
2022-09-27T03:03:22.414Z,79.85
2022-09-27T03:06:08.055Z,80.73
2022-09-27T03:08:36.930Z,80.12
2022-09-27T03:11:04.747Z,81.16
2022-09-27T03:13:32.377Z,80.74
2022-09-27T03:16:01.757Z,80.77
2022-09-27T03:18:47.772Z,81.00
2022-09-27T03:21:53.008Z,81.38
2022-09-27T03:24:20.003Z,82.43
2022-09-27T03:26:47.527Z,82.33
2022-09-27T03:29:15.735Z,81.34
2022-09-27T03:31:47.029Z,81.64
2022-09-27T03:34:34.488Z,81.66
2022-09-27T03:37:02.095Z,81.60
2022-09-27T03:39:29.221Z,81.23
2022-09-27T03:41:56.958Z,81.00
2022-09-27T03:44:23.974Z,80.75
2022-09-27T03:46:51.099Z,80.80
2022-09-27T03:49:18.052Z,80.50
2022-09-27T03:51:45.094Z,80.65
2022-09-27T03:54:12.015Z,81.24
2022-09-27T03:56:39.113Z,80.75
2022-09-27T03:59:06.305Z,79.77
2022-09-27T04:01:53.451Z,80.64
2022-09-27T04:04:40.375Z,80.62
2022-09-27T04:07:10.297Z,80.34
2022-09-27T04:09:41.269Z,79.65
2022-09-27T04:12:12.358Z,80.17
2022-09-27T04:14:39.518Z,80.49
2022-09-27T04:17:25.696Z,80.14
2022-09-27T04:20:18.967Z,80.23
2022-09-27T04:22:46.234Z,79.92
2022-09-27T04:25:13.557Z,80.43
2022-09-27T04:27:46.107Z,81.53
2022-09-27T04:30:15.425Z,80.73
2022-09-27T04:33:11.752Z,80.21
2022-09-27T04:36:03.866Z,81.34
2022-09-27T04:38:32.020Z,80.63
2022-09-27T04:41:01.880Z,80.39
2022-09-27T04:43:32.563Z,80.25
2022-09-27T04:45:59.711Z,79.04
2022-09-27T04:48:27.387Z,81.38
2022-09-27T04:51:02.480Z,80.49
2022-09-27T04:53:30.261Z,80.00
2022-09-27T04:55:59.340Z,80.47
2022-09-27T04:58:26.642Z,79.61
2022-09-27T05:00:55.909Z,79.52
2022-09-27T05:03:42.953Z,79.41
2022-09-27T05:06:12.347Z,79.00
2022-09-27T05:08:39.411Z,78.71
2022-09-27T05:11:18.172Z,79.70
2022-09-27T05:14:05.832Z,78.87
2022-09-27T05:16:41.173Z,79.57
2022-09-27T05:19:38.634Z,78.64
2022-09-27T05:22:31.716Z,78.63
2022-09-27T05:24:58.802Z,78.28
2022-09-27T05:27:25.819Z,77.79
2022-09-27T05:29:53.157Z,79.01
2022-09-27T05:32:29.849Z,78.96
2022-09-27T05:35:19.337Z,79.26
2022-09-27T05:37:58.127Z,79.01
2022-09-27T05:40:40.853Z,80.51
2022-09-27T05:43:10.408Z,81.41
2022-09-27T05:45:37.975Z,81.62
2022-09-27T05:48:06.473Z,81.38
2022-09-27T05:50:38.439Z,81.56
2022-09-27T05:53:06.224Z,80.48
2022-09-27T05:55:33.433Z,80.75
2022-09-27T05:58:07.717Z,82.73
2022-09-27T06:00:46.349Z,82.43
2022-09-27T06:03:41.223Z,81.54
2022-09-27T06:06:34.045Z,82.25
2022-09-27T06:09:02.648Z,83.16
2022-09-27T06:11:29.754Z,82.34
2022-09-27T06:13:57.237Z,80.87
2022-09-27T06:16:25.564Z,80.42
2022-09-27T06:18:52.666Z,81.64
2022-09-27T06:21:20.317Z,80.36
2022-09-27T06:23:55.653Z,80.27
2022-09-27T06:26:30.257Z,79.54
2022-09-27T06:29:17.838Z,80.84
2022-09-27T06:31:57.668Z,78.92
2022-09-27T06:34:41.735Z,77.62
2022-09-27T06:37:09.068Z,77.65
2022-09-27T06:39:36.479Z,77.29
2022-09-27T06:42:27.976Z,78.69
2022-09-27T06:45:15.350Z,78.49
2022-09-27T06:48:17.291Z,78.79
2022-09-27T06:51:06.668Z,80.33
2022-09-27T06:53:34.011Z,78.99
2022-09-27T06:56:02.240Z,79.94
2022-09-27T06:58:56.648Z,80.79
2022-09-27T07:01:42.006Z,80.44
2022-09-27T07:04:27.934Z,80.24
2022-09-27T07:07:18.063Z,79.65
2022-09-27T07:09:47.009Z,80.31
2022-09-27T07:12:14.151Z,78.72
2022-09-27T07:14:42.669Z,78.80
2022-09-27T07:17:13.953Z,78.81
2022-09-27T07:19:44.360Z,78.58
2022-09-27T07:22:12.710Z,78.17
2022-09-27T07:24:41.889Z,78.67
2022-09-27T07:27:09.128Z,78.41
2022-09-27T07:29:36.301Z,79.23
2022-09-27T07:32:04.541Z,79.69
2022-09-27T07:34:33.776Z,79.51
2022-09-27T07:37:03.332Z,79.39
2022-09-27T07:39:31.732Z,78.86
2022-09-27T07:41:58.941Z,79.53
2022-09-27T07:44:27.271Z,79.53
2022-09-27T07:47:12.541Z,78.03
2022-09-27T07:49:59.817Z,78.88
2022-09-27T07:52:45.576Z,78.99
2022-09-27T07:55:27.873Z,80.13
2022-09-27T07:58:05.469Z,77.90
2022-09-27T08:00:32.423Z,78.70
2022-09-27T08:03:03.608Z,78.19
2022-09-27T08:05:30.875Z,78.61
2022-09-27T08:07:58.135Z,78.54
2022-09-27T08:10:30.508Z,77.39
2022-09-27T08:13:01.689Z,77.74
2022-09-27T08:15:28.876Z,78.41
2022-09-27T08:17:57.389Z,78.26
2022-09-27T08:20:47.368Z,77.58
2022-09-27T08:23:37.344Z,78.08
2022-09-27T08:26:13.135Z,78.00
2022-09-27T08:28:51.920Z,78.94
2022-09-27T08:31:25.685Z,77.95
2022-09-27T08:33:55.187Z,78.68
2022-09-27T08:36:24.221Z,79.18
2022-09-27T08:38:52.384Z,79.02
2022-09-27T08:41:52.370Z,78.16
2022-09-27T08:45:03.554Z,79.28
2022-09-27T08:47:47.816Z,79.67
2022-09-27T08:50:27.262Z,77.93
2022-09-27T08:53:13.538Z,78.38
2022-09-27T08:55:57.487Z,78.27
2022-09-27T08:58:39.430Z,77.69
2022-09-27T09:01:16.319Z,78.08
2022-09-27T09:04:06.379Z,78.63
2022-09-27T09:07:03.940Z,78.21
2022-09-27T09:10:43.737Z,77.67
2022-09-27T09:13:37.512Z,77.20
2022-09-27T09:16:28.872Z,76.65
2022-09-27T09:19:53.949Z,77.61
2022-09-27T09:23:18.539Z,78.71
2022-09-27T09:26:30.683Z,76.57
2022-09-27T09:29:25.109Z,75.92
2022-09-27T09:32:15.770Z,78.04
2022-09-27T09:34:58.168Z,77.01
2022-09-27T09:37:45.967Z,75.16
2022-09-27T09:40:57.729Z,74.74
2022-09-27T09:43:45.440Z,74.93
2022-09-27T09:46:28.655Z,73.94
2022-09-27T09:49:19.475Z,73.17
2022-09-27T09:51:56.624Z,72.63
2022-09-27T09:54:35.429Z,73.24
2022-09-27T09:57:12.262Z,73.20
2022-09-27T10:00:02.356Z,73.28
2022-09-27T10:02:40.936Z,71.25
2022-09-27T10:05:21.192Z,72.31
2022-09-27T10:07:58.831Z,70.45
2022-09-27T10:10:26.044Z,73.23
2022-09-27T10:12:58.771Z,71.34
2022-09-27T10:15:31.921Z,70.88
2022-09-27T10:18:00.668Z,71.28
2022-09-27T10:20:39.449Z,69.32
2022-09-27T10:23:21.257Z,69.21
2022-09-27T10:26:11.305Z,70.60
2022-09-27T10:28:47.384Z,70.57
2022-09-27T10:31:21.012Z,70.51
2022-09-27T10:34:01.604Z,70.75
2022-09-27T10:36:35.389Z,71.19
2022-09-27T10:39:07.020Z,70.67
2022-09-27T10:41:46.176Z,70.58
2022-09-27T10:44:32.671Z,72.90
2022-09-27T10:47:13.772Z,73.38
2022-09-27T10:49:53.715Z,72.30
2022-09-27T10:52:46.312Z,73.05
2022-09-27T10:55:27.642Z,72.67
2022-09-27T10:57:56.809Z,72.44
2022-09-27T11:00:34.835Z,73.38
2022-09-27T11:03:14.918Z,71.76
2022-09-27T11:05:43.137Z,70.45
2022-09-27T11:08:19.513Z,71.50
2022-09-27T11:11:39.257Z,72.56
2022-09-27T11:14:22.758Z,71.70
2022-09-27T11:17:08.791Z,71.70
2022-09-27T11:19:48.529Z,71.29
2022-09-27T11:22:16.700Z,72.81
2022-09-27T11:25:10.759Z,74.42
2022-09-27T11:28:01.293Z,75.11
2022-09-27T11:30:50.840Z,76.02
2022-09-27T11:33:51.979Z,76.55
2022-09-27T11:36:54.436Z,76.81
2022-09-27T11:39:40.105Z,79.60
2022-09-27T11:42:46.052Z,81.27
2022-09-27T11:46:03.247Z,81.04
2022-09-27T11:48:50.134Z,82.30
2022-09-27T11:51:46.641Z,80.20
2022-09-27T11:54:52.703Z,80.47
2022-09-27T11:57:34.493Z,80.28
2022-09-27T12:00:24.495Z,79.92
2022-09-27T12:03:42.360Z,78.83
2022-09-27T12:06:20.195Z,79.10
2022-09-27T12:09:19.748Z,76.81
2022-09-27T12:12:14.808Z,75.08
2022-09-27T12:14:51.678Z,74.14
2022-09-27T12:17:27.943Z,74.10
2022-09-27T12:20:03.222Z,72.64
2022-09-27T12:23:11.906Z,71.80
2022-09-27T12:26:20.830Z,69.48
2022-09-27T12:29:19.979Z,70.64
2022-09-27T12:32:07.233Z,70.04
2022-09-27T12:34:48.713Z,71.29
2022-09-27T12:37:29.334Z,69.45
2022-09-27T12:40:22.086Z,70.17
2022-09-27T12:43:00.900Z,71.26
2022-09-27T12:46:08.463Z,70.08
2022-09-27T12:48:47.511Z,69.45
2022-09-27T12:51:20.944Z,70.17
2022-09-27T12:54:19.872Z,68.30
2022-09-27T12:57:20.485Z,68.36
2022-09-27T13:00:09.085Z,68.92
2022-09-27T13:03:16.108Z,69.58
2022-09-27T13:06:24.711Z,69.19
2022-09-27T13:09:10.809Z,72.95
2022-09-27T13:12:27.021Z,74.97
2022-09-27T13:15:25.710Z,75.13
2022-09-27T13:18:03.786Z,75.55
2022-09-27T13:20:51.600Z,75.50
2022-09-27T13:23:40.478Z,74.66
2022-09-27T13:26:32.280Z,74.17
2022-09-27T13:29:06.510Z,74.95
2022-09-27T13:31:59.304Z,74.15
2022-09-27T13:34:57.023Z,73.70
2022-09-27T13:37:45.258Z,73.99
2022-09-27T13:40:16.380Z,74.20
2022-09-27T13:43:17.682Z,74.13
2022-09-27T13:46:09.597Z,73.19
2022-09-27T13:49:17.002Z,73.19
2022-09-27T13:52:23.496Z,73.27
2022-09-27T13:55:36.423Z,72.54
2022-09-27T13:58:14.550Z,71.65
2022-09-27T14:00:56.027Z,71.83
2022-09-27T14:03:38.014Z,70.31
2022-09-27T14:06:09.218Z,71.12
2022-09-27T14:08:49.499Z,71.37
2022-09-27T14:11:26.234Z,71.60
2022-09-27T14:13:54.836Z,70.37
2022-09-27T14:16:23.549Z,69.46
2022-09-27T14:18:59.497Z,70.51
2022-09-27T14:21:39.971Z,69.61
2022-09-27T14:24:36.096Z,68.63
2022-09-27T14:27:24.494Z,69.72
2022-09-27T14:30:15.307Z,68.52
2022-09-27T14:32:54.069Z,70.05
2022-09-27T14:35:50.777Z,69.97
2022-09-27T14:38:37.253Z,69.60
2022-09-27T14:41:10.599Z,68.29
2022-09-27T14:43:45.190Z,69.97
2022-09-27T14:46:31.627Z,70.42
2022-09-27T14:51:52.490Z,70.79
2022-09-27T14:54:23.168Z,71.14
2022-09-27T14:56:53.528Z,70.85
2022-09-27T14:59:32.211Z,69.78
2022-09-27T15:02:02.702Z,69.50
2022-09-27T15:04:34.446Z,69.08
2022-09-27T15:07:02.902Z,69.16
2022-09-27T15:09:33.324Z,69.16
2022-09-27T15:12:02.413Z,67.89
2022-09-27T15:14:33.307Z,69.50
2022-09-27T15:17:05.759Z,69.01
2022-09-27T15:19:34.565Z,69.85
2022-09-27T15:22:36.967Z,68.96
2022-09-27T15:25:19.027Z,68.38
2022-09-27T15:27:56.213Z,68.62
2022-09-27T15:30:34.717Z,69.43
2022-09-27T15:33:02.023Z,69.71
2022-09-27T15:35:36.021Z,69.16
2022-09-27T15:38:32.514Z,68.42
2022-09-27T15:41:17.389Z,67.35
2022-09-27T15:43:50.276Z,67.43
2022-09-27T15:46:23.480Z,67.93
2022-09-27T15:49:33.621Z,67.87
2022-09-27T15:52:05.193Z,69.31
2022-09-27T15:54:34.675Z,69.09
2022-09-27T15:57:05.410Z,68.94
2022-09-27T15:59:36.364Z,69.27
2022-09-27T16:02:14.329Z,68.57
2022-09-27T16:04:41.241Z,69.41
2022-09-27T16:07:10.071Z,69.06
2022-09-27T16:09:37.493Z,70.41
2022-09-27T16:12:04.584Z,70.18
2022-09-27T16:14:31.484Z,70.01
2022-09-27T16:17:00.254Z,71.76
2022-09-27T16:19:27.264Z,71.90
2022-09-27T16:21:54.384Z,72.09
2022-09-27T16:24:21.355Z,72.19
2022-09-27T16:26:48.278Z,71.29
2022-09-27T16:29:16.404Z,72.55
2022-09-27T16:31:44.387Z,73.19
2022-09-27T16:34:12.517Z,72.62
2022-09-27T16:36:39.704Z,73.15
2022-09-27T16:39:10.554Z,72.64
2022-09-27T16:41:37.681Z,72.36
2022-09-27T16:44:13.233Z,72.83
2022-09-27T16:46:42.414Z,73.21
2022-09-27T16:49:29.493Z,72.52
2022-09-27T16:51:59.946Z,73.89
2022-09-27T16:54:30.468Z,73.04
2022-09-27T16:56:59.625Z,72.66
2022-09-27T16:59:27.635Z,73.51
2022-09-27T17:01:58.140Z,73.21
2022-09-27T17:04:27.633Z,73.81
2022-09-27T17:06:56.207Z,74.09
2022-09-27T17:09:23.208Z,74.39
2022-09-27T17:11:51.103Z,73.64
2022-09-27T17:14:18.351Z,74.26
2022-09-27T17:16:47.163Z,74.44
2022-09-27T17:19:16.181Z,74.25
2022-09-27T17:21:43.742Z,74.89
2022-09-27T17:24:10.827Z,74.69
2022-09-27T17:26:38.454Z,75.66
2022-09-27T17:29:05.547Z,75.54
2022-09-27T17:31:34.689Z,77.08
2022-09-27T17:34:02.555Z,77.45
2022-09-27T17:36:37.498Z,77.89
2022-09-27T17:39:05.516Z,77.98
2022-09-27T17:41:39.629Z,77.73
2022-09-27T17:44:07.300Z,77.08
2022-09-27T17:46:36.480Z,77.09
2022-09-27T17:49:22.986Z,77.11
2022-09-27T17:51:53.573Z,77.47
2022-09-27T17:54:24.518Z,78.09
2022-09-27T17:56:51.776Z,79.55
2022-09-27T17:59:19.142Z,79.22
2022-09-27T18:01:47.874Z,78.75
2022-09-27T18:04:17.684Z,80.31
2022-09-27T18:06:47.052Z,79.75
2022-09-27T18:09:17.012Z,80.10
2022-09-27T18:11:45.445Z,79.57
2022-09-27T18:14:12.821Z,79.58
2022-09-27T18:16:43.055Z,79.30
2022-09-27T18:19:17.059Z,79.86
2022-09-27T18:21:44.382Z,79.57
2022-09-27T18:24:11.960Z,79.87
2022-09-27T18:26:40.259Z,78.91
2022-09-27T18:29:14.709Z,79.68
2022-09-27T18:31:48.030Z,79.09
2022-09-27T18:34:19.257Z,80.12
2022-09-27T18:36:46.543Z,79.86
2022-09-27T18:39:19.841Z,80.04
2022-09-27T18:41:50.726Z,80.40
2022-09-27T18:44:18.366Z,80.68
2022-09-27T18:46:46.108Z,81.11
2022-09-27T18:49:15.208Z,80.57
2022-09-27T18:51:44.768Z,81.71
2022-09-27T18:54:19.774Z,81.66
2022-09-27T18:56:49.667Z,81.49
2022-09-27T18:59:17.523Z,81.62
2022-09-27T19:01:45.910Z,80.70
2022-09-27T19:04:21.567Z,80.25
2022-09-27T19:06:52.160Z,80.53
2022-09-27T19:09:19.211Z,80.66
2022-09-27T19:11:46.336Z,81.61
2022-09-27T19:14:20.588Z,80.81
2022-09-27T19:16:48.516Z,80.15
2022-09-27T19:19:17.388Z,79.59
2022-09-27T19:21:45.077Z,80.53
2022-09-27T19:24:13.783Z,80.11
2022-09-27T19:26:40.960Z,80.09
2022-09-27T19:29:07.855Z,79.71
2022-09-27T19:31:35.979Z,80.52
2022-09-27T19:34:03.742Z,79.52
2022-09-27T19:36:31.289Z,79.25
2022-09-27T19:38:59.052Z,80.33
2022-09-27T19:41:27.091Z,79.23
2022-09-27T19:43:56.094Z,79.85
2022-09-27T19:46:24.896Z,79.38
2022-09-27T19:48:52.908Z,80.03
2022-09-27T19:51:25.593Z,78.95
2022-09-27T19:53:54.505Z,79.18
2022-09-27T19:56:22.208Z,79.21
2022-09-27T19:58:50.016Z,79.66
2022-09-27T20:01:23.674Z,78.78
2022-09-27T20:03:53.483Z,79.30
2022-09-27T20:06:21.775Z,78.56
2022-09-27T20:08:49.691Z,79.88
2022-09-27T20:11:19.829Z,81.23
2022-09-27T20:13:47.992Z,80.98
2022-09-27T20:16:18.800Z,80.59
2022-09-27T20:18:51.903Z,80.83
2022-09-27T20:21:21.629Z,81.23
2022-09-27T20:23:53.794Z,80.71
2022-09-27T20:26:23.979Z,81.08
2022-09-27T20:28:54.072Z,81.04
2022-09-27T20:31:24.774Z,81.14
2022-09-27T20:33:52.648Z,80.22
2022-09-27T20:36:26.335Z,80.83
2022-09-27T20:39:03.028Z,80.92
2022-09-27T20:41:33.691Z,80.38
2022-09-27T20:44:04.522Z,80.25
2022-09-27T20:46:33.215Z,79.71
2022-09-27T20:49:03.861Z,79.91
2022-09-27T20:51:33.369Z,79.05
2022-09-27T20:54:02.953Z,80.09
2022-09-27T20:56:36.794Z,80.12
2022-09-27T20:59:07.893Z,79.75
2022-09-27T21:01:36.438Z,80.37
2022-09-27T21:04:05.276Z,79.46
2022-09-27T21:06:33.560Z,79.89
2022-09-27T21:09:04.311Z,79.64
2022-09-27T21:11:31.894Z,79.31
2022-09-27T21:13:58.936Z,79.17
2022-09-27T21:16:32.457Z,78.73
2022-09-27T21:18:59.673Z,79.40
2022-09-27T21:21:27.216Z,79.88
2022-09-27T21:24:00.865Z,78.23
2022-09-27T21:26:31.822Z,78.25
2022-09-27T21:29:02.084Z,77.84
2022-09-27T21:31:32.196Z,78.35
2022-09-27T21:34:02.091Z,78.35
2022-09-27T21:36:39.285Z,78.45
2022-09-27T21:39:08.884Z,78.63
2022-09-27T21:41:37.280Z,78.17
2022-09-27T21:44:06.338Z,77.78
2022-09-27T21:46:34.170Z,77.52
2022-09-27T21:49:02.019Z,76.40
2022-09-27T21:51:38.443Z,77.33
2022-09-27T21:54:10.146Z,79.27
2022-09-27T21:56:39.685Z,79.56
2022-09-27T21:59:11.651Z,79.09
2022-09-27T22:01:38.648Z,79.34
2022-09-27T22:04:06.835Z,79.62
2022-09-27T22:06:37.034Z,79.27
2022-09-27T22:09:11.998Z,79.58
2022-09-27T22:11:44.191Z,79.73
2022-09-27T22:14:12.473Z,78.99
2022-09-27T22:16:39.747Z,79.18
2022-09-27T22:19:07.667Z,79.13
2022-09-27T22:21:37.948Z,80.32
2022-09-27T22:24:14.414Z,80.29
2022-09-27T22:26:45.410Z,79.62
2022-09-27T22:29:12.738Z,80.47
2022-09-27T22:31:39.845Z,80.86
2022-09-27T22:34:16.085Z,79.96
2022-09-27T22:36:43.617Z,79.73
2022-09-27T22:39:10.707Z,79.50
2022-09-27T22:41:38.174Z,79.40
2022-09-27T22:44:05.367Z,79.69
2022-09-27T22:46:32.456Z,79.17
2022-09-27T22:48:59.527Z,79.88
2022-09-27T22:51:26.407Z,80.12
2022-09-27T22:53:53.818Z,79.40
2022-09-27T22:56:21.395Z,79.63
2022-09-27T22:58:49.455Z,78.68
2022-09-27T23:01:24.600Z,78.18
2022-09-27T23:03:53.699Z,78.53
2022-09-27T23:06:22.306Z,78.51
2022-09-27T23:08:50.009Z,77.88
2022-09-27T23:11:20.637Z,78.19
2022-09-27T23:13:49.487Z,78.51
2022-09-27T23:16:25.341Z,77.23
2022-09-27T23:18:54.358Z,76.79
2022-09-27T23:21:22.822Z,77.46
2022-09-27T23:23:50.075Z,77.47
2022-09-27T23:26:17.502Z,77.32
2022-09-27T23:28:44.955Z,76.11
2022-09-27T23:31:16.835Z,75.83
2022-09-27T23:33:48.356Z,76.42
2022-09-27T23:36:19.053Z,75.97
2022-09-27T23:38:48.442Z,75.64
2022-09-27T23:41:17.403Z,74.95
2022-09-27T23:43:45.430Z,74.82
2022-09-27T23:46:13.078Z,75.18
2022-09-27T23:48:40.603Z,75.63
2022-09-27T23:51:11.725Z,75.23
2022-09-27T23:53:39.835Z,75.82
2022-09-27T23:56:10.542Z,75.38
2022-09-27T23:58:41.060Z,75.41
